Time;durP1;ratioP1;P1;durP2;ratioP2;P2;SDS_P1;SDS_P2;PMS_P1;PMS_P2;Temp;Humidity;BMP_temperature;BMP_pressure;BME280_temperature;BME280_humidity;BME280_pressure;Samples;Min_cycle;Max_cycle;Signal;HPM_P1;HPM_P2
2022/09/18 00:01:00;;;;;;;14.70;12.05;;;;;;;19.04;100.00;99342.98;1806617;79;20939;-88
2022/09/18 00:03:27;;;;;;;22.10;12.43;;;;;;;19.03;100.00;99339.51;1806242;79;20904;-88
2022/09/18 00:05:54;;;;;;;14.15;11.73;;;;;;;19.04;100.00;99333.69;1806928;79;21243;-90
2022/09/18 00:08:21;;;;;;;15.70;11.93;;;;;;;19.03;100.00;99336.85;1804897;79;20889;-90
2022/09/18 00:10:48;;;;;;;14.00;12.05;;;;;;;19.02;100.00;99329.87;1804829;79;20904;-87
2022/09/18 00:13:15;;;;;;;19.00;12.25;;;;;;;19.01;100.00;99330.89;1804885;79;20941;-89
2022/09/18 00:15:42;;;;;;;14.53;12.07;;;;;;;19.01;100.00;99327.41;1804831;78;20994;-89
2022/09/18 00:18:09;;;;;;;18.20;13.53;;;;;;;19.02;100.00;99327.21;1750383;79;21128;-90
2022/09/18 00:20:36;;;;;;;16.77;14.95;;;;;;;19.01;100.00;99318.93;1804662;79;20912;-90
2022/09/18 00:23:03;;;;;;;18.67;16.67;;;;;;;19.01;100.00;99322.91;1804774;79;20922;-89
2022/09/18 00:25:31;;;;;;;18.95;16.37;;;;;;;19.02;100.00;99322.41;1804729;79;20861;-89
2022/09/18 00:27:57;;;;;;;22.85;18.87;;;;;;;19.01;100.00;99320.26;1804586;78;20979;-88
2022/09/18 00:30:24;;;;;;;23.98;20.57;;;;;;;19.01;100.00;99325.57;1808394;78;21034;-90
2022/09/18 00:32:50;;;;;;;28.23;23.12;;;;;;;19.02;100.00;99328.54;1814926;79;21338;-90
2022/09/18 00:35:17;;;;;;;29.00;22.05;;;;;;;19.03;100.00;99336.85;1814805;79;20888;-91
2022/09/18 00:37:43;;;;;;;29.27;22.80;;;;;;;19.03;100.00;99330.20;1815109;79;20959;-90
2022/09/18 00:40:10;;;;;;;28.90;21.60;;;;;;;19.04;100.00;99340.33;1814994;79;20880;-90
2022/09/18 00:42:38;;;;;;;27.80;22.22;;;;;;;19.06;100.00;99348.95;1815134;79;21366;-90
2022/09/18 00:45:05;;;;;;;27.87;23.42;;;;;;;19.05;100.00;99344.14;1814847;79;20958;-90
2022/09/18 00:47:34;;;;;;;24.72;20.80;;;;;;;19.06;100.00;99343.64;1814414;79;21552;-89
2022/09/18 00:50:15;;;;;;;23.22;19.98;;;;;;;19.08;100.00;99336.31;1814654;79;20920;-89
2022/09/18 00:52:49;;;;;;;25.02;19.40;;;;;;;19.08;100.00;99344.80;1814812;79;20971;-89
2022/09/18 00:55:17;;;;;;;24.92;21.12;;;;;;;19.08;100.00;99339.48;1814704;79;21123;-90
2022/09/18 00:57:51;;;;;;;29.37;21.30;;;;;;;19.08;100.00;99334.98;1814734;79;20912;-89
2022/09/18 01:00:18;;;;;;;26.30;22.70;;;;;;;19.08;100.00;99341.62;1815232;79;21014;-89
2022/09/18 01:02:45;;;;;;;36.95;28.67;;;;;;;19.07;100.00;99343.95;1816783;79;21202;-89
2022/09/18 01:05:13;;;;;;;26.85;21.50;;;;;;;19.08;100.00;99344.28;1817417;79;20943;-88
2022/09/18 01:08:14;;;;;;;27.22;22.27;;;;;;;19.09;100.00;99339.79;1817327;77;21232;-90
2022/09/18 01:11:05;;;;;;;23.07;20.48;;;;;;;19.08;100.00;99331.00;1815234;79;20967;-91
2022/09/18 01:13:49;;;;;;;23.83;21.07;;;;;;;19.08;100.00;99325.69;1814574;79;20951;-90
2022/09/18 01:16:25;;;;;;;25.20;20.75;;;;;;;19.07;100.00;99329.33;1801865;79;20924;-89
2022/09/18 01:19:01;;;;;;;26.77;22.55;;;;;;;19.05;100.00;99320.23;1814870;78;20952;-90
2022/09/18 01:21:43;;;;;;;24.82;22.27;;;;;;;19.03;100.00;99311.61;1801675;79;21781;-89
2022/09/18 01:24:48;;;;;;;27.00;22.82;;;;;;;19.02;100.00;99297.16;1811216;79;20959;-91
2022/09/18 01:27:42;;;;;;;26.65;23.85;;;;;;;19.01;100.00;99312.80;1813757;79;20955;-90
2022/09/18 01:30:10;;;;;;;29.33;24.60;;;;;;;19.00;100.00;99324.41;1814004;79;20978;-90
2022/09/18 01:32:56;;;;;;;25.25;22.48;;;;;;;18.98;100.00;99313.95;1804912;79;21042;-90
2022/09/18 01:35:35;;;;;;;26.02;21.80;;;;;;;18.98;100.00;99317.13;1804965;79;21241;-89
2022/09/18 01:38:24;;;;;;;33.45;23.95;;;;;;;18.97;100.00;99313.64;1804963;79;20916;-91
2022/09/18 01:41:05;;;;;;;35.75;26.30;;;;;;;18.96;100.00;99311.16;1804940;78;21370;-89
2022/09/18 01:43:31;;;;;;;26.93;23.52;;;;;;;18.95;100.00;99307.68;1804764;79;20972;-89
2022/09/18 01:46:03;;;;;;;31.02;27.95;;;;;;;18.94;100.00;99306.52;1805337;79;21330;-89
2022/09/18 01:48:35;;;;;;;31.52;25.20;;;;;;;18.94;100.00;99302.53;1804761;78;21743;-91
2022/09/18 01:51:17;;;;;;;32.83;27.37;;;;;;;18.94;100.00;99306.52;1804936;79;21319;-90
2022/09/18 01:53:47;;;;;;;31.23;24.15;;;;;;;18.92;100.00;99296.09;1804598;78;20975;-91
2022/09/18 01:56:19;;;;;;;25.72;23.05;;;;;;;18.92;100.00;99278.83;1804933;79;20892;-90
2022/09/18 01:58:46;;;;;;;26.80;22.70;;;;;;;18.91;100.00;99276.34;1776336;79;20940;-89
2022/09/18 02:01:15;;;;;;;26.62;21.00;;;;;;;18.91;100.00;99279.00;1776084;79;21260;-88
2022/09/18 02:03:45;;;;;;;25.20;19.30;;;;;;;18.89;100.00;99275.69;1805200;79;20845;-88
2022/09/18 02:06:22;;;;;;;23.32;19.15;;;;;;;18.88;100.00;99273.55;1805086;79;21002;-90
2022/09/18 02:08:53;;;;;;;26.85;18.67;;;;;;;18.86;100.00;99266.25;1804263;79;20893;-88
2022/09/18 02:11:21;;;;;;;19.90;17.57;;;;;;;18.84;100.00;99250.99;1804387;79;20888;-88
2022/09/18 02:14:09;;;;;;;22.37;18.60;;;;;;;18.79;100.00;99240.91;1804892;79;21162;-90
2022/09/18 02:16:56;;;;;;;21.75;16.07;;;;;;;18.81;100.00;99241.56;1792584;79;21405;-90
2022/09/18 02:19:30;;;;;;;22.30;16.82;;;;;;;18.80;100.00;99229.77;1804783;79;21439;-90
2022/09/18 02:21:57;;;;;;;18.57;16.05;;;;;;;18.78;100.00;99213.19;1804942;79;20976;-91
2022/09/18 02:24:28;;;;;;;19.95;16.40;;;;;;;18.76;100.00;99215.98;1804925;79;21370;-91
2022/09/18 02:26:56;;;;;;;19.37;16.52;;;;;;;18.72;100.00;99195.28;1805472;79;21162;-89
2022/09/18 02:29:22;;;;;;;21.37;16.05;;;;;;;18.70;100.00;99195.95;1804794;79;20912;-90
2022/09/18 02:31:50;;;;;;;21.90;15.72;;;;;;;18.66;100.00;99182.23;1813244;78;20884;-90
2022/09/18 02:34:16;;;;;;;17.40;15.40;;;;;;;18.66;100.00;99176.11;1817816;78;20924;-89
2022/09/18 02:37:10;;;;;;;23.02;15.23;;;;;;;18.62;100.00;99175.12;1815199;79;21365;-89
2022/09/18 02:40:22;;;;;;;20.23;15.07;;;;;;;18.62;100.00;99175.12;1815239;79;21232;-87
2022/09/18 02:43:07;;;;;;;22.62;17.17;;;;;;;18.61;100.00;99185.43;1815203;79;21385;-87
2022/09/18 02:45:54;;;;;;;44.27;35.65;;;;;;;18.60;100.00;99182.94;1815360;79;20881;-88
2022/09/18 02:48:43;;;;;;;43.90;38.78;;;;;;;18.60;100.00;99194.38;1815231;79;20875;-88
2022/09/18 02:51:47;;;;;;;26.57;15.60;;;;;;;18.59;100.00;99206.02;1815517;79;20911;-91
2022/09/18 02:54:28;;;;;;;22.93;15.32;;;;;;;18.59;100.00;99197.23;1815410;79;21790;-88
2022/09/18 02:57:01;;;;;;;21.50;15.83;;;;;;;18.58;100.00;99201.70;1815137;79;20955;-91
2022/09/18 02:59:34;;;;;;;25.80;19.20;;;;;;;18.57;100.00;99204.05;1815365;79;20884;-90
2022/09/18 03:02:00;;;;;;;19.17;15.25;;;;;;;18.58;100.00;99200.88;1815381;79;20884;-89
2022/09/18 03:04:29;;;;;;;19.25;14.13;;;;;;;18.58;100.00;99199.55;1815404;79;20931;-89
2022/09/18 03:07:13;;;;;;;25.88;15.18;;;;;;;18.57;100.00;99188.62;1814863;79;21600;-88
2022/09/18 03:09:40;;;;;;;21.00;15.58;;;;;;;18.58;100.00;99186.28;1814655;79;20907;-89
2022/09/18 03:12:07;;;;;;;24.40;16.40;;;;;;;18.59;100.00;99198.56;1815502;79;20888;-90
2022/09/18 03:14:36;;;;;;;21.33;16.12;;;;;;;18.60;100.00;99201.53;1817518;78;20920;-90
2022/09/18 03:17:04;;;;;;;25.48;16.67;;;;;;;18.60;100.00;99186.92;1817032;77;20928;-90
2022/09/18 03:19:32;;;;;;;22.80;16.90;;;;;;;18.60;100.00;99181.62;1817385;79;21156;-90
2022/09/18 03:22:00;;;;;;;26.73;17.20;;;;;;;18.60;100.00;99128.52;1816875;79;20860;-90
2022/09/18 03:24:29;;;;;;;30.12;18.37;;;;;;;18.60;100.00;99189.07;1814405;79;20915;-90
2022/09/18 03:26:56;;;;;;;20.30;15.43;;;;;;;18.60;100.00;99211.64;1814334;79;20931;-90
2022/09/18 03:29:25;;;;;;;29.50;18.60;;;;;;;18.60;100.00;99209.49;1814349;79;20896;-90
2022/09/18 03:31:52;;;;;;;28.98;18.55;;;;;;;18.61;100.00;99186.75;1814207;79;21802;-91
2022/09/18 03:34:18;;;;;;;28.02;19.45;;;;;;;18.61;100.00;99141.62;1814413;79;20857;-90
2022/09/18 03:36:46;;;;;;;32.73;21.23;;;;;;;18.60;100.00;99133.31;1814290;79;20929;-91
2022/09/18 03:39:14;;;;;;;31.10;20.15;;;;;;;18.58;100.00;99103.97;1814289;79;20920;-89
2022/09/18 03:41:41;;;;;;;29.95;21.52;;;;;;;18.57;100.00;99095.70;1814212;79;21389;-89
2022/09/18 03:44:08;;;;;;;26.07;20.37;;;;;;;18.56;100.00;99085.55;1814091;79;21383;-90
2022/09/18 03:46:37;;;;;;;31.42;20.65;;;;;;;18.55;100.00;99092.40;1813525;79;20967;-87
2022/09/18 03:49:03;;;;;;;31.73;20.08;;;;;;;18.54;100.00;99095.56;1814215;79;20934;-88
2022/09/18 03:51:32;;;;;;;26.73;18.37;;;;;;;18.56;100.00;99096.17;1813985;79;20856;-89
2022/09/18 03:54:00;;;;;;;28.35;17.45;;;;;;;18.55;100.00;99074.62;1814418;79;20919;-89
2022/09/18 03:56:28;;;;;;;27.73;19.30;;;;;;;18.57;100.00;99065.98;1814444;79;21118;-89
2022/09/18 03:58:59;;;;;;;28.52;20.10;;;;;;;18.59;100.00;99068.47;1815526;79;20894;-89
2022/09/18 04:01:37;;;;;;;32.17;21.07;;;;;;;18.59;100.00;99091.03;1778100;79;20920;-89
2022/09/18 04:04:18;;;;;;;30.02;21.02;;;;;;;18.61;100.00;99092.50;1771304;79;20868;-88
2022/09/18 04:07:03;;;;;;;36.33;23.67;;;;;;;18.63;100.00;99084.33;1814259;79;20903;-89
2022/09/18 04:09:44;;;;;;;39.25;23.55;;;;;;;18.67;100.00;99095.42;1813746;79;21227;-89
2022/09/18 04:12:10;;;;;;;36.20;25.15;;;;;;;18.69;100.00;99095.56;1816492;79;20912;-90
2022/09/18 04:14:37;;;;;;;39.08;22.42;;;;;;;18.73;100.00;99096.84;1814472;79;20911;-88
2022/09/18 04:17:05;;;;;;;35.23;23.45;;;;;;;18.78;100.00;99102.97;1791577;79;20948;-88
2022/09/18 04:19:32;;;;;;;33.20;21.10;;;;;;;18.80;100.00;99095.64;1814237;79;20873;-89
2022/09/18 04:21:58;;;;;;;34.15;21.90;;;;;;;18.82;100.00;99097.62;1814155;79;21777;-89
2022/09/18 04:24:26;;;;;;;35.60;21.23;;;;;;;18.84;100.00;99084.47;1814104;79;20912;-88
2022/09/18 04:26:52;;;;;;;33.95;23.15;;;;;;;18.88;100.00;99086.78;1814316;79;20998;-90
2022/09/18 04:29:21;;;;;;;25.17;21.42;;;;;;;18.91;100.00;99085.89;1814231;79;20896;-89
2022/09/18 04:31:48;;;;;;;32.85;21.75;;;;;;;18.92;100.00;99088.88;1810049;79;20999;-89
2022/09/18 04:34:15;;;;;;;30.52;22.13;;;;;;;18.94;100.00;99094.84;1804668;78;21183;-89
2022/09/18 04:36:42;;;;;;;27.80;23.30;;;;;;;18.96;100.00;99086.16;1804105;79;20924;-89
2022/09/18 04:39:09;;;;;;;26.48;20.23;;;;;;;18.99;100.00;99089.79;1804043;78;20959;-89
2022/09/18 04:41:36;;;;;;;29.05;20.05;;;;;;;19.01;100.00;99085.63;1803979;79;20967;-88
2022/09/18 04:44:04;;;;;;;29.27;19.62;;;;;;;19.04;100.00;99075.95;1803801;78;20888;-90
2022/09/18 04:46:32;;;;;;;25.92;18.25;;;;;;;19.08;100.00;99065.78;1803950;79;21226;-89
2022/09/18 04:49:00;;;;;;;19.95;16.95;;;;;;;19.11;100.00;99060.91;1804187;79;20876;-90
2022/09/18 04:51:27;;;;;;;30.55;17.98;;;;;;;19.16;100.00;99041.74;1803999;79;21335;-88
2022/09/18 04:53:53;;;;;;;29.05;18.57;;;;;;;19.18;100.00;99036.55;1804215;79;20892;-90
2022/09/18 04:56:22;;;;;;;28.65;18.32;;;;;;;19.19;100.00;99020.95;1804066;79;20912;-89
2022/09/18 04:58:50;;;;;;;23.40;16.00;;;;;;;19.22;100.00;99024.55;1804329;79;21173;-90
2022/09/18 05:01:17;;;;;;;22.50;17.75;;;;;;;19.24;100.00;99027.03;1775408;79;20893;-88
2022/09/18 05:03:43;;;;;;;22.48;16.85;;;;;;;19.29;100.00;99030.45;1775549;79;20998;-90
2022/09/18 05:06:12;;;;;;;22.95;17.52;;;;;;;19.34;100.00;99032.03;1803302;78;20923;-89
2022/09/18 05:08:41;;;;;;;23.22;16.10;;;;;;;19.64;100.00;99035.42;1804199;78;20974;-89
2022/09/18 05:11:07;;;;;;;19.82;13.80;;;;;;;20.15;100.00;99034.47;1804078;79;22116;-90
2022/09/18 05:13:38;;;;;;;26.12;14.50;;;;;;;20.73;100.00;99026.27;1804221;79;20971;-90
2022/09/18 05:16:08;;;;;;;22.73;12.88;;;;;;;21.26;100.00;99037.16;1803846;78;20845;-91
2022/09/18 05:18:36;;;;;;;16.25;11.38;;;;;;;21.66;96.24;99043.95;1775601;79;20940;-92
2022/09/18 05:21:03;;;;;;;13.20;10.98;;;;;;;21.88;93.08;99045.41;1804281;78;21477;-90
2022/09/18 05:23:33;;;;;;;18.05;10.68;;;;;;;21.97;90.38;99042.55;1805089;79;21376;-91
2022/09/18 05:26:01;;;;;;;17.85;10.08;;;;;;;21.90;88.53;99035.36;1807142;79;20847;-90
2022/09/18 05:28:28;;;;;;;15.72;9.15;;;;;;;21.80;88.10;99030.11;1805942;79;20889;-91
2022/09/18 05:30:59;;;;;;;21.93;9.10;;;;;;;21.65;87.89;99025.77;1804721;79;21456;-91
2022/09/18 05:33:29;;;;;;;14.07;8.45;;;;;;;21.53;88.25;99030.07;1809197;78;20864;-89
2022/09/18 05:35:57;;;;;;;25.70;10.28;;;;;;;21.42;88.66;99035.48;1809769;78;21234;-88
2022/09/18 05:38:24;;;;;;;15.55;8.40;;;;;;;21.35;89.19;99038.61;1809822;79;20955;-90
2022/09/18 05:40:52;;;;;;;14.47;7.55;;;;;;;21.31;89.82;99043.52;1809942;78;20888;-90
2022/09/18 05:43:18;;;;;;;15.58;8.73;;;;;;;21.28;90.39;99050.59;1809771;79;21373;-91
2022/09/18 05:45:46;;;;;;;13.38;8.93;;;;;;;21.27;90.81;99048.12;1809877;78;21389;-90
2022/09/18 05:48:15;;;;;;;21.20;9.90;;;;;;;21.23;91.21;99056.20;1809675;79;21163;-89
2022/09/18 05:50:42;;;;;;;18.20;10.28;;;;;;;21.19;91.67;99057.13;1809818;79;21369;-90
2022/09/18 05:53:12;;;;;;;14.78;10.10;;;;;;;21.16;92.15;99067.36;1809902;78;20908;-88
2022/09/18 05:55:41;;;;;;;18.35;9.95;;;;;;;21.10;92.73;99052.48;1808477;79;21350;-87
2022/09/18 05:58:16;;;;;;;15.98;10.10;;;;;;;21.13;93.44;99054.44;1810509;79;20892;-90
2022/09/18 06:00:46;;;;;;;14.95;9.70;;;;;;;21.16;93.62;99058.84;1809746;79;21210;-91
2022/09/18 06:03:15;;;;;;;15.05;10.30;;;;;;;21.22;93.41;99055.38;1809787;78;21429;-91
2022/09/18 06:05:42;;;;;;;15.05;9.25;;;;;;;21.27;93.28;99055.59;1809602;79;20908;-90
2022/09/18 06:08:11;;;;;;;12.88;9.58;;;;;;;21.57;93.35;99055.84;1809652;78;21413;-90
2022/09/18 06:10:40;;;;;;;13.32;7.25;;;;;;;22.21;93.06;99061.12;1809590;79;20892;-91
2022/09/18 06:13:12;;;;;;;13.85;7.25;;;;;;;22.82;88.89;99074.22;1809424;78;20899;-90
2022/09/18 06:15:50;;;;;;;14.07;7.53;;;;;;;23.29;86.15;99070.08;1809994;79;20877;-90
2022/09/18 06:18:19;;;;;;;10.70;7.15;;;;;;;23.54;82.91;99077.68;1809881;78;21189;-90
2022/09/18 06:20:55;;;;;;;14.23;7.60;;;;;;;23.71;80.53;99073.96;1809454;78;21449;-88
2022/09/18 06:23:25;;;;;;;10.28;7.70;;;;;;;23.75;79.62;99066.36;1780440;79;20991;-89
2022/09/18 06:26:01;;;;;;;12.98;6.37;;;;;;;23.69;78.91;99073.35;1808545;79;21159;-91
2022/09/18 06:28:29;;;;;;;13.20;7.58;;;;;;;23.56;78.84;99046.14;1783223;79;20842;-89
2022/09/18 06:30:58;;;;;;;8.93;7.53;;;;;;;23.46;79.36;99073.09;1812305;78;21014;-90
2022/09/18 06:33:24;;;;;;;11.83;6.50;;;;;;;23.51;80.02;99073.27;1814186;79;20877;-90
2022/09/18 06:35:51;;;;;;;12.47;8.33;;;;;;;23.58;79.23;99078.05;1816877;79;20924;-90
2022/09/18 06:38:19;;;;;;;9.38;6.55;;;;;;;23.62;78.37;99073.11;1813891;79;21359;-89
2022/09/18 06:40:49;;;;;;;8.90;6.05;;;;;;;23.62;78.29;99079.27;1814526;79;20884;-89
2022/09/18 06:43:18;;;;;;;10.32;6.45;;;;;;;23.57;77.72;99083.12;1812238;79;20876;-92
2022/09/18 06:45:52;;;;;;;11.12;6.03;;;;;;;23.55;78.10;99093.22;1811615;79;20857;-90
2022/09/18 06:48:23;;;;;;;12.68;6.62;;;;;;;23.50;77.78;99088.51;1814698;79;20868;-91
2022/09/18 06:50:57;;;;;;;8.70;6.17;;;;;;;23.50;77.67;99103.22;1814563;79;21840;-92
2022/09/18 06:53:29;;;;;;;11.43;7.03;;;;;;;23.56;77.65;99103.68;1817085;79;20884;-90
2022/09/18 06:55:58;;;;;;;11.15;7.05;;;;;;;23.85;77.44;99104.17;1816658;79;20888;-90
2022/09/18 06:58:25;;;;;;;27.05;24.20;;;;;;;24.17;75.79;99100.97;1814716;79;21003;-90
2022/09/18 07:00:52;;;;;;;11.48;5.33;;;;;;;24.73;74.40;99105.97;1814741;79;20912;-91
2022/09/18 07:03:21;;;;;;;12.28;5.92;;;;;;;25.42;71.70;99107.19;1813985;79;21205;-90
2022/09/18 07:06:09;;;;;;;12.70;5.92;;;;;;;26.14;67.82;99104.52;1814462;79;20911;-90
2022/09/18 07:08:41;;;;;;;9.58;5.72;;;;;;;26.90;65.46;99099.30;1813942;79;21401;-92
2022/09/18 07:11:09;;;;;;;8.10;4.58;;;;;;;27.61;61.39;99094.56;1813117;79;20856;-90
2022/09/18 07:13:37;;;;;;;6.20;3.50;;;;;;;28.18;58.51;99094.23;1814391;79;20975;-91
2022/09/18 07:16:05;;;;;;;9.00;4.28;;;;;;;28.64;56.52;99089.05;1814698;79;21940;-90
2022/09/18 07:18:33;;;;;;;9.68;4.25;;;;;;;28.87;56.07;99095.28;1793107;79;20872;-90
2022/09/18 07:21:01;;;;;;;7.00;3.83;;;;;;;29.12;55.64;99092.92;1817246;79;20873;-91
2022/09/18 07:23:32;;;;;;;10.50;4.05;;;;;;;29.41;53.77;99079.22;1815991;79;20888;-90
2022/09/18 07:25:59;;;;;;;5.50;3.10;;;;;;;29.73;53.01;99088.78;1815159;79;20915;-89
2022/09/18 07:28:26;;;;;;;4.78;3.25;;;;;;;30.06;51.12;99082.86;1814798;79;21076;-90
2022/09/18 07:30:55;;;;;;;7.33;3.02;;;;;;;30.31;50.75;99089.03;1814014;79;21464;-92
2022/09/18 07:33:22;;;;;;;7.05;2.98;;;;;;;30.52;49.59;99087.81;1814537;79;20876;-89
2022/09/18 07:35:49;;;;;;;9.05;3.27;;;;;;;30.67;48.80;99096.02;1814525;79;20927;-90
2022/09/18 07:38:16;;;;;;;6.22;2.80;;;;;;;30.80;48.55;99096.10;1814728;79;20951;-89
2022/09/18 07:40:48;;;;;;;6.95;3.02;;;;;;;31.10;48.58;99087.87;1812715;79;21242;-91
2022/09/18 07:43:17;;;;;;;5.45;3.02;;;;;;;31.52;48.09;99099.14;1812884;79;20927;-89
2022/09/18 07:45:45;;;;;;;5.53;2.30;;;;;;;31.89;46.59;99100.30;1813996;79;21030;-92
2022/09/18 07:48:12;;;;;;;3.05;2.27;;;;;;;32.00;45.18;99098.44;1814587;79;20935;-92
2022/09/18 07:50:41;;;;;;;7.03;4.72;;;;;;;32.04;45.33;99100.89;1814192;79;21397;-91
2022/09/18 07:53:09;;;;;;;7.47;3.67;;;;;;;32.13;44.17;99099.26;1814877;79;21212;-92
2022/09/18 07:55:38;;;;;;;7.00;4.95;;;;;;;32.13;44.14;99103.88;1815143;79;21440;-91
2022/09/18 07:58:06;;;;;;;6.80;5.95;;;;;;;32.06;43.45;99106.86;1815071;79;21077;-91
2022/09/18 08:00:47;;;;;;;4.55;2.70;;;;;;;32.05;44.16;99101.14;1812457;79;20979;-93
2022/09/18 08:03:15;;;;;;;4.00;2.87;;;;;;;32.00;44.04;99101.96;1815505;79;20975;-90
2022/09/18 08:05:56;;;;;;;11.18;2.72;;;;;;;32.09;43.77;99102.23;1814564;79;22131;-91
2022/09/18 08:08:24;;;;;;;8.60;2.20;;;;;;;32.18;43.47;99091.66;1815880;79;20979;-91
2022/09/18 08:10:54;;;;;;;7.22;2.08;;;;;;;32.27;43.25;99089.22;1815700;79;20955;-91
2022/09/18 08:13:35;;;;;;;5.55;2.15;;;;;;;32.39;43.00;99095.99;1751317;79;20987;-91
2022/09/18 08:16:13;;;;;;;3.90;2.10;;;;;;;32.55;42.40;99086.47;1794009;79;20860;-90
2022/09/18 08:18:49;;;;;;;6.83;2.12;;;;;;;32.78;42.36;99084.52;1814204;79;21638;-91
2022/09/18 08:21:37;;;;;;;4.05;2.83;;;;;;;33.03;41.66;99085.52;1805515;79;20979;-92
2022/09/18 08:24:11;;;;;;;7.12;2.08;;;;;;;33.29;41.49;99088.97;1791579;77;20963;31
2022/09/18 08:26:39;;;;;;;3.05;1.50;;;;;;;33.58;41.06;99095.90;1697622;81;20962;-91
2022/09/18 08:29:08;;;;;;;6.37;2.90;;;;;;;33.89;40.69;99079.93;1670815;84;21010;-91
2022/09/18 08:31:38;;;;;;;6.12;2.17;;;;;;;34.25;40.00;99081.27;1670706;83;21332;-90
2022/09/18 08:34:14;;;;;;;2.83;1.50;;;;;;;34.64;39.37;99076.29;1697351;83;20877;-89
2022/09/18 08:36:47;;;;;;;4.67;1.75;;;;;;;35.00;38.05;99081.31;1697637;84;20919;-93
2022/09/18 08:39:16;;;;;;;8.18;1.62;;;;;;;35.24;36.60;99077.23;1696905;83;20963;-91
2022/09/18 08:42:12;;;;;;;2.80;1.30;;;;;;;35.22;36.44;99067.17;1694415;83;20995;-89
2022/09/18 08:47:55;;;;;;;6.45;1.50;;;;;;;35.20;36.38;99071.30;1799679;79;22488;-91
2022/09/18 08:50:27;;;;;;;3.60;1.40;;;;;;;35.30;35.64;99073.86;1760480;80;20971;-91
2022/09/18 08:53:16;;;;;;;3.58;1.50;;;;;;;35.34;35.77;99067.28;1700154;83;21105;-90
2022/09/18 08:55:53;;;;;;;2.87;1.80;;;;;;;35.49;35.08;99062.97;1709962;82;21223;-91
2022/09/18 08:58:34;;;;;;;3.27;1.40;;;;;;;35.51;35.27;99067.58;1725709;82;20990;-90
2022/09/18 09:01:09;;;;;;;4.37;1.92;;;;;;;35.63;34.68;99054.32;1726572;82;21029;-89
2022/09/18 09:04:07;;;;;;;4.30;1.67;;;;;;;35.63;34.42;99072.61;1722840;83;20943;-88
2022/09/18 09:07:03;;;;;;;1.57;1.40;;;;;;;35.55;34.65;99067.78;1726525;82;21249;-89
2022/09/18 09:10:02;;;;;;;2.67;1.02;;;;;;;35.78;35.15;99062.83;1726229;83;20943;-90
2022/09/18 09:12:56;;;;;;;3.27;1.30;;;;;;;36.01;33.66;99056.98;1726704;82;21002;-88
2022/09/18 09:15:44;;;;;;;2.60;1.62;;;;;;;36.08;33.99;99060.12;1698388;83;20950;-90
2022/09/18 09:18:19;;;;;;;4.30;1.35;;;;;;;36.24;34.47;99067.55;1726417;83;20887;-89
2022/09/18 09:20:53;;;;;;;7.45;1.30;;;;;;;36.50;33.55;99068.43;1725573;81;21128;-89
2022/09/18 09:23:39;;;;;;;2.05;1.20;;;;;;;36.63;33.57;99068.22;1724325;82;21026;-89
2022/09/18 09:26:15;;;;;;;3.45;1.80;;;;;;;36.82;34.03;99070.30;1710591;84;20901;-91
2022/09/18 09:29:07;;;;;;;4.22;1.37;;;;;;;37.11;32.58;99073.30;1696350;84;20951;-89
2022/09/18 09:31:43;;;;;;;6.72;1.27;;;;;;;36.85;32.01;99064.78;1658517;84;20864;-94
2022/09/18 09:34:39;;;;;;;6.03;1.30;;;;;;;36.52;32.28;99058.81;1696228;84;21255;-91
2022/09/18 09:37:19;;;;;;;2.17;1.30;;;;;;;36.04;32.45;99066.48;1694646;84;20867;-93
2022/09/18 09:39:51;;;;;;;2.25;1.30;;;;;;;35.70;33.10;99079.86;1697734;82;20915;-90
2022/09/18 09:42:26;;;;;;;;;;;;;;;35.43;34.07;99074.49;1701465;81;20958;-89
2022/09/18 09:45:16;;;;;;;4.47;1.25;;;;;;;35.24;34.32;99079.95;1699296;81;20124;-90
2022/09/18 09:47:54;;;;;;;5.90;1.55;;;;;;;35.18;34.93;99070.77;1683203;82;22063;-90
2022/09/18 09:50:51;;;;;;;2.67;1.85;;;;;;;35.26;34.46;99078.27;1751630;80;20927;-90
2022/09/18 09:53:18;;;;;;;16.82;15.45;;;;;;;35.16;35.26;99074.34;1751652;80;21026;-90
2022/09/18 09:56:08;;;;;;;5.72;2.40;;;;;;;35.26;35.33;99079.11;1752327;78;20923;-89
2022/09/18 09:59:14;;;;;;;2.67;1.30;;;;;;;35.43;34.09;99069.05;1753498;78;20884;-88
2022/09/18 10:01:50;;;;;;;5.45;1.27;;;;;;;35.07;34.29;99071.42;1755878;78;20966;-89
2022/09/18 10:04:44;;;;;;;3.58;1.57;;;;;;;34.35;35.05;99067.29;1751684;82;20872;-90
2022/09/18 10:07:38;;;;;;;4.92;1.02;;;;;;;34.12;36.09;99064.23;1770570;80;20923;-90
2022/09/18 10:10:28;;;;;;;3.87;1.02;;;;;;;34.20;36.03;99064.98;1752213;80;20944;-93
2022/09/18 10:13:00;;;;;;;2.72;0.90;;;;;;;34.37;34.73;99055.02;1751127;80;20963;-92
2022/09/18 10:15:38;;;;;;;5.37;0.93;;;;;;;34.42;34.79;99055.53;1751382;81;21135;-88
2022/09/18 10:18:15;;;;;;;2.27;0.80;;;;;;;34.39;34.88;99058.26;1751041;80;20888;-90
2022/09/18 10:20:42;;;;;;;3.37;1.00;;;;;;;34.42;34.65;99054.17;1721296;82;21006;-91
2022/09/18 10:23:18;;;;;;;2.67;0.68;;;;;;;34.52;34.42;99060.86;1751464;82;20907;-90
2022/09/18 10:25:57;;;;;;;2.80;0.90;;;;;;;34.45;34.23;99057.67;1750819;81;21432;-89
2022/09/18 10:28:28;;;;;;;7.37;1.55;;;;;;;34.31;35.00;99058.07;1721777;82;21397;-91
2022/09/18 10:31:11;;;;;;;2.62;0.98;;;;;;;34.35;35.34;99055.04;1750809;80;20970;-91
2022/09/18 10:33:44;;;;;;;4.30;1.00;;;;;;;34.55;35.35;99051.30;1751602;81;21330;-89
2022/09/18 10:36:37;;;;;;;2.62;0.88;;;;;;;34.77;34.36;99053.53;1751187;80;21471;-90
2022/09/18 10:39:32;;;;;;;3.33;0.72;;;;;;;34.96;34.34;99059.84;1752137;80;20872;-91
2022/09/18 10:42:04;;;;;;;4.95;1.15;;;;;;;35.02;33.81;99055.15;1752969;79;21120;-91
2022/09/18 10:44:42;;;;;;;4.12;1.15;;;;;;;34.92;33.90;99064.80;1753211;81;20820;-91
2022/09/18 10:47:19;;;;;;;3.90;1.00;;;;;;;34.70;34.29;99051.72;1755219;80;20927;-91
2022/09/18 10:49:57;;;;;;;3.80;3.40;;;;;;;34.50;34.23;99048.08;1758770;80;20947;-91
2022/09/18 10:52:41;;;;;;;4.37;3.40;;;;;;;34.44;34.50;99049.23;1758890;81;21069;-93
2022/09/18 10:55:27;;;;;;;4.37;2.45;;;;;;;34.36;33.76;99045.80;1758465;80;21216;-92
2022/09/18 10:58:14;;;;;;;5.33;1.35;;;;;;;34.20;33.94;99042.42;1758456;81;21421;-90
2022/09/18 11:01:04;;;;;;;5.65;1.47;;;;;;;34.15;34.27;99042.45;1758965;81;20932;-92
2022/09/18 11:03:46;;;;;;;4.80;1.75;;;;;;;34.19;33.91;99036.14;1758916;81;20944;-93
2022/09/18 11:06:23;;;;;;;7.50;1.10;;;;;;;34.12;34.07;99036.22;1759091;81;20940;-91
2022/09/18 11:08:58;;;;;;;4.30;1.55;;;;;;;34.05;34.50;99025.64;1742047;81;21228;-92
2022/09/18 11:11:36;;;;;;;4.92;0.88;;;;;;;33.93;34.45;99027.39;1758979;81;20924;-91
2022/09/18 11:14:25;;;;;;;2.90;0.90;;;;;;;33.81;34.00;99020.14;1746890;81;20837;-90
2022/09/18 11:16:59;;;;;;;3.50;1.17;;;;;;;33.45;34.40;99017.67;1757924;81;21468;-92
2022/09/18 11:19:33;;;;;;;2.83;1.10;;;;;;;33.21;34.70;99028.41;1759942;81;20869;-92
2022/09/18 11:22:08;;;;;;;4.85;1.72;;;;;;;32.98;35.03;99027.96;1757584;80;21427;-91
2022/09/18 11:24:38;;;;;;;5.35;1.00;;;;;;;32.78;35.69;99026.70;1758789;80;21322;-92
2022/09/18 11:27:20;;;;;;;3.02;0.93;;;;;;;32.74;35.97;99016.12;1758951;81;20885;-90
2022/09/18 11:29:47;;;;;;;4.83;1.10;;;;;;;32.76;36.07;99015.30;1758765;81;20916;-89
2022/09/18 11:32:24;;;;;;;4.20;0.90;;;;;;;32.83;35.69;99014.45;1760198;78;20916;-90
2022/09/18 11:34:57;;;;;;;5.00;0.80;;;;;;;32.88;35.77;99013.05;1743188;80;21111;-92
2022/09/18 11:37:42;;;;;;;5.22;1.37;;;;;;;32.84;35.54;99003.87;1759468;78;20900;-91
2022/09/18 11:40:25;;;;;;;4.67;1.20;;;;;;;32.69;35.32;99005.28;1759479;81;21374;-93
2022/09/18 11:42:57;;;;;;;2.95;1.27;;;;;;;32.54;35.23;98996.09;1758958;81;20959;-91
2022/09/18 11:45:43;;;;;;;6.45;1.00;;;;;;;32.42;35.97;99005.08;1757277;81;21018;-90
2022/09/18 11:48:38;;;;;;;3.42;0.95;;;;;;;32.42;36.16;99001.81;1759282;80;21891;-92
2022/09/18 11:51:16;;;;;;;3.52;0.80;;;;;;;32.45;36.22;98997.73;1758153;81;20994;-92
2022/09/18 11:53:47;;;;;;;8.50;1.52;;;;;;;32.46;35.98;98993.10;1758942;80;20904;-91
2022/09/18 11:56:32;;;;;;;5.70;1.17;;;;;;;32.37;35.74;98986.91;1758987;81;20955;-93